createdAt,value
2019-05-03T00:01:16.375Z,99819.73
2019-05-03T00:03:48.419Z,99814.64
2019-05-03T00:06:19.731Z,99811.93
2019-05-03T00:08:52.106Z,99809.95
2019-05-03T00:11:23.608Z,99814.70
2019-05-03T00:13:55.004Z,99812.72
2019-05-03T00:16:34.248Z,99805.88
2019-05-03T00:19:05.713Z,99803.21
2019-05-03T00:21:37.106Z,99801.16
2019-05-03T00:24:08.365Z,99803.02
2019-05-03T00:26:39.659Z,99806.48
2019-05-03T00:29:12.702Z,99797.31
2019-05-03T00:31:44.175Z,99795.73
2019-05-03T00:34:16.978Z,99796.26
2019-05-03T00:36:49.846Z,99796.07
2019-05-03T00:39:22.827Z,99790.68
2019-05-03T00:41:54.162Z,99801.70
2019-05-03T00:44:25.419Z,99802.42
2019-05-03T00:46:56.756Z,99802.13
2019-05-03T00:49:29.167Z,99804.02
2019-05-03T00:52:02.339Z,99792.30
2019-05-03T00:54:33.763Z,99796.06
2019-05-03T00:57:05.099Z,99799.80
2019-05-03T00:59:36.472Z,99795.91
2019-05-03T01:02:07.826Z,99794.89
2019-05-03T01:04:39.065Z,99793.05
2019-05-03T01:07:11.709Z,99795.45
2019-05-03T01:09:43.209Z,99795.98
2019-05-03T01:12:14.466Z,99794.61
2019-05-03T01:14:47.353Z,99781.42
2019-05-03T01:17:18.672Z,99782.46
2019-05-03T01:19:52.001Z,99789.77
2019-05-03T01:22:22.921Z,99784.98
2019-05-03T01:24:54.259Z,99787.70
2019-05-03T01:27:25.509Z,99778.55
2019-05-03T01:29:57.058Z,99785.17
2019-05-03T01:32:29.425Z,99786.00
2019-05-03T01:35:02.940Z,99788.91
2019-05-03T01:37:33.724Z,99780.09
2019-05-03T01:40:07.590Z,99776.35
2019-05-03T01:42:38.919Z,99778.19
2019-05-03T01:45:11.945Z,99782.64
2019-05-03T01:47:52.498Z,99777.89
2019-05-03T01:50:40.203Z,99779.23
2019-05-03T01:53:19.114Z,99777.21
2019-05-03T01:55:53.570Z,99787.73
2019-05-03T01:58:25.306Z,99787.05
2019-05-03T02:00:58.315Z,99778.56
2019-05-03T02:03:37.144Z,99777.55
2019-05-03T02:06:08.487Z,99776.02
2019-05-03T02:08:41.685Z,99780.42
2019-05-03T02:11:12.816Z,99782.45
2019-05-03T02:13:44.091Z,99776.01
2019-05-03T02:16:15.437Z,99781.45
2019-05-03T02:18:46.760Z,99775.50
2019-05-03T02:21:18.222Z,99777.69
2019-05-03T02:23:49.655Z,99788.72
2019-05-03T02:26:22.405Z,99790.41
2019-05-03T02:28:55.122Z,99791.75
2019-05-03T02:31:26.471Z,99788.64
2019-05-03T02:33:57.828Z,99794.67
2019-05-03T02:36:29.388Z,99786.86
2019-05-03T02:39:02.840Z,99791.76
2019-05-03T02:41:36.116Z,99794.77
2019-05-03T02:44:07.628Z,99803.41
2019-05-03T02:46:56.321Z,99813.58
2019-05-03T02:49:29.469Z,99828.19
2019-05-03T02:52:00.956Z,99831.62
2019-05-03T02:54:32.403Z,99833.66
2019-05-03T02:57:06.319Z,99831.47
2019-05-03T02:59:37.127Z,99832.14
2019-05-03T03:02:08.610Z,99831.18
2019-05-03T03:04:40.017Z,99840.59
2019-05-03T03:07:12.113Z,99839.72
2019-05-03T03:09:45.308Z,99840.47
2019-05-03T03:12:16.083Z,99846.52
2019-05-03T03:14:48.277Z,99842.91
2019-05-03T03:17:21.379Z,99845.88
2019-05-03T03:19:55.227Z,99846.49
2019-05-03T03:22:29.040Z,99846.23
2019-05-03T03:25:05.286Z,99853.33
2019-05-03T03:27:40.137Z,99848.90
2019-05-03T03:30:31.670Z,99853.80
2019-05-03T03:33:08.614Z,99850.53
2019-05-03T03:35:40.088Z,99849.94
2019-05-03T03:38:11.447Z,99860.50
2019-05-03T03:40:45.321Z,99865.83
2019-05-03T03:43:20.048Z,99860.48
2019-05-03T03:45:52.285Z,99872.21
2019-05-03T03:48:26.510Z,99872.25
2019-05-03T03:50:58.534Z,99865.41
2019-05-03T03:53:32.371Z,99872.86
2019-05-03T03:56:05.566Z,99874.48
2019-05-03T03:58:37.735Z,99877.99
2019-05-03T04:01:09.200Z,99869.65
2019-05-03T04:03:40.647Z,99870.96
2019-05-03T04:06:12.209Z,99870.89
2019-05-03T04:08:45.410Z,99871.22
2019-05-03T04:11:16.739Z,99867.38
2019-05-03T04:13:48.465Z,99866.91
2019-05-03T04:16:39.683Z,99866.70
2019-05-03T04:19:13.463Z,99865.06
2019-05-03T04:21:45.451Z,99867.12
2019-05-03T04:24:16.944Z,99865.66
2019-05-03T04:26:50.224Z,99868.27
2019-05-03T04:29:21.684Z,99863.20
2019-05-03T04:31:56.481Z,99862.36
2019-05-03T04:34:28.333Z,99863.52
2019-05-03T04:37:00.142Z,99867.77
2019-05-03T04:39:31.663Z,99869.30
2019-05-03T04:42:03.241Z,99867.66
2019-05-03T04:44:35.740Z,99872.33
2019-05-03T04:47:07.586Z,99876.72
2019-05-03T04:49:41.707Z,99877.63
2019-05-03T04:52:12.898Z,99877.08
2019-05-03T04:54:56.298Z,99879.13
2019-05-03T04:57:39.860Z,99876.02
2019-05-03T05:00:01.329Z,99879.87
2019-05-03T05:02:35.394Z,99881.74
2019-05-03T05:05:08.775Z,99888.66
2019-05-03T05:07:40.108Z,99887.50
2019-05-03T05:10:11.626Z,99879.89
2019-05-03T05:12:45.843Z,99887.33
2019-05-03T05:15:17.059Z,99887.60
2019-05-03T05:17:53.152Z,99890.98
2019-05-03T05:20:28.969Z,99890.06
2019-05-03T05:23:00.348Z,99892.38
2019-05-03T05:25:44.496Z,99886.73
2019-05-03T05:28:28.466Z,99886.36
2019-05-03T05:30:59.604Z,99887.37
2019-05-03T05:33:31.035Z,99890.11
2019-05-03T05:36:04.771Z,99889.84
2019-05-03T05:38:36.355Z,99891.43
2019-05-03T05:41:08.092Z,99895.64
2019-05-03T05:43:39.506Z,99894.28
2019-05-03T05:46:10.994Z,99902.98
2019-05-03T05:48:50.095Z,99899.39
2019-05-03T05:51:21.458Z,99898.71
2019-05-03T05:53:54.791Z,99900.05
2019-05-03T05:56:46.079Z,99898.23
2019-05-03T05:59:31.310Z,99902.92
2019-05-03T06:02:04.841Z,99899.62
2019-05-03T06:04:36.412Z,99897.41
2019-05-03T06:07:09.368Z,99908.99
2019-05-03T06:09:42.451Z,99910.18
2019-05-03T06:12:15.643Z,99904.23
2019-05-03T06:14:48.670Z,99900.18
2019-05-03T06:17:24.672Z,99898.57
2019-05-03T06:20:05.394Z,99897.85
2019-05-03T06:22:44.853Z,99903.88
2019-05-03T06:25:18.313Z,99907.36
2019-05-03T06:27:49.814Z,99912.20
2019-05-03T06:30:25.669Z,99914.86
2019-05-03T06:32:57.090Z,99916.66
2019-05-03T06:35:29.792Z,99916.55
2019-05-03T06:38:01.285Z,99917.51
2019-05-03T06:40:32.654Z,99929.27
2019-05-03T06:43:11.168Z,99930.44
2019-05-03T06:45:41.038Z,99926.31
2019-05-03T06:48:10.303Z,99932.13
2019-05-03T06:50:41.739Z,99929.89
2019-05-03T06:53:15.333Z,99937.38
2019-05-03T06:55:48.445Z,99932.53
2019-05-03T06:58:30.398Z,99933.50
2019-05-03T07:00:55.320Z,99933.48
2019-05-03T07:03:35.446Z,99935.91
2019-05-03T07:06:34.426Z,99935.78
2019-05-03T07:08:59.828Z,99931.19
2019-05-03T07:11:31.364Z,99946.43
2019-05-03T07:14:02.791Z,99940.97
2019-05-03T07:16:35.323Z,99947.92
2019-05-03T07:19:06.942Z,99949.65
2019-05-03T07:21:38.443Z,99949.84
2019-05-03T07:24:09.844Z,99941.98
2019-05-03T07:26:41.607Z,99952.28
2019-05-03T07:29:15.113Z,99952.45
2019-05-03T07:31:46.151Z,99948.59
2019-05-03T07:34:17.478Z,99951.73
2019-05-03T07:36:48.834Z,99955.14
2019-05-03T07:39:20.440Z,99957.27
2019-05-03T07:41:51.886Z,99950.34
2019-05-03T07:44:25.338Z,99951.59
2019-05-03T07:46:56.351Z,99953.00
2019-05-03T07:49:27.784Z,99958.02
2019-05-03T07:52:00.196Z,99950.28
2019-05-03T07:54:31.607Z,99951.96
2019-05-03T07:57:05.108Z,99944.91
2019-05-03T07:59:36.887Z,99954.33
2019-05-03T08:02:08.332Z,99952.02
2019-05-03T08:04:39.791Z,99953.50
2019-05-03T08:07:20.692Z,99959.10
2019-05-03T08:09:45.256Z,99964.45
2019-05-03T08:12:16.896Z,99965.91
2019-05-03T08:14:48.527Z,99961.66
2019-05-03T08:17:19.946Z,99962.48
2019-05-03T08:19:51.353Z,99966.92
2019-05-03T08:22:22.750Z,99966.16
2019-05-03T08:24:55.567Z,99962.77
2019-05-03T08:27:27.105Z,99961.13
2019-05-03T08:29:58.516Z,99964.58
2019-05-03T08:32:49.899Z,99962.48
2019-05-03T08:35:26.955Z,99965.77
2019-05-03T08:37:59.558Z,99966.46
2019-05-03T08:40:32.637Z,99971.13
2019-05-03T08:43:05.167Z,99968.59
2019-05-03T08:45:36.854Z,99974.02
2019-05-03T08:48:08.242Z,99975.63
2019-05-03T08:50:39.738Z,99973.66
2019-05-03T08:53:11.144Z,99973.34
2019-05-03T08:55:44.825Z,99973.95
2019-05-03T08:58:15.682Z,99970.02
2019-05-03T09:00:47.050Z,99974.48
2019-05-03T09:03:18.608Z,99974.56
2019-05-03T09:05:50.117Z,99963.04
2019-05-03T09:08:21.578Z,99969.56
2019-05-03T09:10:54.689Z,99978.27
2019-05-03T09:13:26.402Z,99977.86
2019-05-03T09:15:57.821Z,99971.88
2019-05-03T09:18:29.232Z,99976.70
2019-05-03T09:21:00.740Z,99969.13
2019-05-03T09:23:32.140Z,99962.61
2019-05-03T09:26:04.641Z,99959.30
2019-05-03T09:28:36.303Z,99969.03
2019-05-03T09:31:07.835Z,99965.28
2019-05-03T09:33:39.280Z,99959.09
2019-05-03T09:36:10.905Z,99957.11
2019-05-03T09:38:42.285Z,99950.80
2019-05-03T09:41:16.749Z,99947.37
2019-05-03T09:43:48.080Z,99950.67
2019-05-03T09:46:19.576Z,99953.50
2019-05-03T09:48:51.962Z,99945.34
2019-05-03T09:51:25.681Z,99945.30
2019-05-03T09:54:10.941Z,99955.14
2019-05-03T09:56:59.166Z,99952.61
2019-05-03T09:59:31.325Z,99948.30
2019-05-03T10:02:04.875Z,99944.56
2019-05-03T10:04:36.840Z,99949.48
2019-05-03T10:07:08.418Z,99939.83
2019-05-03T10:09:39.697Z,99939.76
2019-05-03T10:12:12.656Z,99948.06
2019-05-03T10:14:45.167Z,99946.09
2019-05-03T10:17:21.082Z,99946.57
2019-05-03T10:19:54.590Z,99949.30
2019-05-03T10:22:28.298Z,99954.69
2019-05-03T10:24:59.750Z,99944.87
2019-05-03T10:27:34.615Z,99937.73
2019-05-03T10:30:12.562Z,99941.14
2019-05-03T10:32:44.960Z,99945.45
2019-05-03T10:35:17.448Z,99943.09
2019-05-03T10:37:48.713Z,99942.47
2019-05-03T10:40:26.989Z,99940.48
2019-05-03T10:42:58.446Z,99938.81
2019-05-03T10:45:29.853Z,99943.45
2019-05-03T10:48:01.269Z,99943.14
2019-05-03T10:50:34.244Z,99935.77
2019-05-03T10:53:07.413Z,99945.41
2019-05-03T10:55:38.718Z,99957.98
2019-05-03T10:58:17.737Z,99961.75
2019-05-03T11:00:53.372Z,99968.84
2019-05-03T11:03:23.781Z,99964.72
2019-05-03T11:05:55.146Z,99963.59
2019-05-03T11:08:26.483Z,99952.48
2019-05-03T11:10:57.762Z,99960.08
2019-05-03T11:13:29.257Z,99956.59
2019-05-03T11:16:00.640Z,99963.67
2019-05-03T11:18:34.559Z,99975.45
2019-05-03T11:21:05.859Z,99981.84
2019-05-03T11:23:37.332Z,99981.48
2019-05-03T11:26:08.830Z,99980.59
2019-05-03T11:28:40.196Z,99974.36
2019-05-03T11:31:29.792Z,99969.59
2019-05-03T11:34:02.837Z,99960.68
2019-05-03T11:36:38.450Z,99954.92
2019-05-03T11:39:09.879Z,99950.81
2019-05-03T11:41:44.967Z,99951.27
2019-05-03T11:44:35.883Z,99945.77
2019-05-03T11:47:10.086Z,99948.41
2019-05-03T11:49:41.433Z,99962.58
2019-05-03T11:52:15.857Z,99962.45
2019-05-03T11:54:46.870Z,99959.81
2019-05-03T11:57:19.861Z,99954.38
2019-05-03T11:59:51.633Z,99961.75
2019-05-03T12:02:24.865Z,99956.82
2019-05-03T12:04:59.373Z,99944.34
2019-05-03T12:07:39.453Z,99934.05
2019-05-03T12:10:16.779Z,99928.97
2019-05-03T12:12:41.268Z,99927.16
2019-05-03T12:15:14.990Z,99928.97
2019-05-03T12:17:54.367Z,99930.03
2019-05-03T12:20:23.552Z,99924.69
2019-05-03T12:22:55.738Z,99926.92
2019-05-03T12:25:28.394Z,99929.30
2019-05-03T12:28:00.285Z,99919.95
2019-05-03T12:30:50.071Z,99912.59
2019-05-03T12:33:22.696Z,99891.81
2019-05-03T12:35:55.208Z,99892.89
2019-05-03T12:38:26.782Z,99886.53
2019-05-03T12:40:59.102Z,99899.83
2019-05-03T12:43:30.427Z,99894.59
2019-05-03T12:46:01.710Z,99887.55
2019-05-03T12:48:35.269Z,99885.83
2019-05-03T12:51:07.280Z,99893.03
2019-05-03T12:53:39.075Z,99894.22
2019-05-03T12:56:13.755Z,99909.20
2019-05-03T12:58:57.721Z,99902.85
2019-05-03T13:01:45.142Z,99914.36
2019-05-03T13:04:20.208Z,99911.99
2019-05-03T13:06:54.927Z,99912.55
2019-05-03T13:09:27.479Z,99901.56
2019-05-03T13:11:59.380Z,99896.38
2019-05-03T13:14:30.615Z,99903.45
2019-05-03T13:17:02.034Z,99920.55
2019-05-03T13:19:34.943Z,99925.54
2019-05-03T13:22:05.746Z,99919.45
2019-05-03T13:24:36.913Z,99919.44
2019-05-03T13:27:08.309Z,99917.25
2019-05-03T13:29:39.769Z,99915.63
2019-05-03T13:32:10.966Z,99921.77
2019-05-03T13:34:42.216Z,99916.38
2019-05-03T13:37:15.024Z,99913.02
2019-05-03T13:39:46.566Z,99909.64
2019-05-03T13:42:17.988Z,99906.78
2019-05-03T13:44:49.346Z,99904.67
2019-05-03T13:47:20.592Z,99915.74
2019-05-03T13:49:51.752Z,99904.83
2019-05-03T13:52:25.015Z,99904.48
2019-05-03T13:54:55.913Z,99897.75
2019-05-03T13:57:27.195Z,99890.09
2019-05-03T13:59:58.457Z,99894.45
2019-05-03T14:02:29.732Z,99900.46
2019-05-03T14:05:01.033Z,99895.27
2019-05-03T14:07:32.525Z,99898.50
2019-05-03T14:10:05.442Z,99905.59
2019-05-03T14:12:36.739Z,99912.50
2019-05-03T14:15:08.697Z,99910.15
2019-05-03T14:17:40.194Z,99910.35
2019-05-03T14:20:16.438Z,99908.90
2019-05-03T14:22:49.491Z,99917.97
2019-05-03T14:25:20.772Z,99927.34
2019-05-03T14:27:52.163Z,99922.52
2019-05-03T14:30:25.333Z,99929.73
2019-05-03T14:32:56.707Z,99936.88
2019-05-03T14:35:28.099Z,99934.17
2019-05-03T14:37:59.360Z,99927.48
2019-05-03T14:40:30.684Z,99927.60
2019-05-03T14:43:02.139Z,99925.20
2019-05-03T14:45:34.963Z,99929.92
2019-05-03T14:48:06.676Z,99922.61
2019-05-03T14:50:38.094Z,99924.64
2019-05-03T14:53:09.543Z,99930.56
2019-05-03T14:55:42.573Z,99935.91
2019-05-03T14:58:21.383Z,99935.62
2019-05-03T15:01:04.785Z,99931.48
2019-05-03T15:03:36.175Z,99934.23
2019-05-03T15:06:07.542Z,99933.48
2019-05-03T15:08:38.859Z,99927.88
2019-05-03T15:11:10.216Z,99924.89
2019-05-03T15:13:41.391Z,99924.28
2019-05-03T15:16:15.718Z,99924.73
2019-05-03T15:18:47.116Z,99931.27
2019-05-03T15:21:18.628Z,99931.93
2019-05-03T15:23:50.034Z,99930.25
2019-05-03T15:26:29.872Z,99934.06
2019-05-03T15:29:01.041Z,99928.42
2019-05-03T15:31:32.356Z,99933.17
2019-05-03T15:34:05.234Z,99930.11
2019-05-03T15:36:36.522Z,99932.07
2019-05-03T15:39:07.884Z,99927.73
2019-05-03T15:41:39.422Z,99927.93
2019-05-03T15:44:25.249Z,99931.98
2019-05-03T15:46:58.390Z,99936.48
2019-05-03T15:49:29.736Z,99933.01
2019-05-03T15:52:01.133Z,99938.52
2019-05-03T15:54:35.210Z,99941.70
2019-05-03T15:57:07.887Z,99943.47
2019-05-03T15:59:39.211Z,99937.34
2019-05-03T16:02:10.477Z,99938.38
2019-05-03T16:04:41.831Z,99935.52
2019-05-03T16:07:14.382Z,99938.69
2019-05-03T16:09:45.941Z,99928.11
2019-05-03T16:12:17.229Z,99943.77
2019-05-03T16:14:48.536Z,99936.68
2019-05-03T16:17:19.971Z,99942.33
2019-05-03T16:19:51.215Z,99930.25
2019-05-03T16:22:22.560Z,99944.19
2019-05-03T16:24:55.666Z,99946.58
2019-05-03T16:27:28.606Z,99951.70
2019-05-03T16:30:00.726Z,99948.94
2019-05-03T16:32:32.435Z,99948.41
2019-05-03T16:35:04.924Z,99954.32
2019-05-03T16:37:36.465Z,99963.08
2019-05-03T16:40:07.862Z,99967.60
2019-05-03T16:42:39.255Z,99969.13
2019-05-03T16:45:10.577Z,99965.50
2019-05-03T16:47:42.255Z,99971.43
2019-05-03T16:50:14.510Z,99966.11
2019-05-03T16:52:46.082Z,99969.82
2019-05-03T16:55:17.411Z,99974.91
2019-05-03T16:57:48.762Z,99972.00
2019-05-03T17:00:20.097Z,99975.71
2019-05-03T17:02:51.607Z,99981.10
2019-05-03T17:05:30.262Z,99991.26
2019-05-03T17:08:19.700Z,99994.83
2019-05-03T17:10:59.332Z,99993.19
2019-05-03T17:13:30.739Z,100000.25
2019-05-03T17:16:02.195Z,99998.80
2019-05-03T17:18:35.288Z,100010.00
2019-05-03T17:21:07.344Z,100003.47
2019-05-03T17:23:38.796Z,100013.81
2019-05-03T17:26:10.347Z,100021.00
2019-05-03T17:28:41.798Z,100021.51
2019-05-03T17:31:13.175Z,100028.91
2019-05-03T17:33:53.236Z,100033.45
2019-05-03T17:36:19.813Z,100040.55
2019-05-03T17:38:54.996Z,100038.21
2019-05-03T17:41:34.757Z,100045.67
2019-05-03T17:44:07.929Z,100047.14
2019-05-03T17:46:39.346Z,100054.33
2019-05-03T17:49:10.917Z,100052.53
2019-05-03T17:51:55.486Z,100061.94
2019-05-03T17:54:27.943Z,100062.88
2019-05-03T17:57:09.614Z,100066.03
2019-05-03T17:59:57.973Z,100070.56
2019-05-03T18:02:35.561Z,100060.32
2019-05-03T18:05:25.295Z,100062.32
2019-05-03T18:08:07.265Z,100063.36
2019-05-03T18:10:43.569Z,100070.33
2019-05-03T18:13:15.087Z,100068.96
2019-05-03T18:15:46.499Z,100068.40
2019-05-03T18:18:17.984Z,100066.50
2019-05-03T18:20:49.472Z,100066.27
2019-05-03T18:23:20.887Z,100067.31
2019-05-03T18:25:54.787Z,100066.48
2019-05-03T18:28:26.758Z,100068.16
2019-05-03T18:30:58.237Z,100070.25
2019-05-03T18:33:29.709Z,100076.45
2019-05-03T18:36:01.157Z,100080.16
2019-05-03T18:38:35.209Z,100083.84
2019-05-03T18:41:07.386Z,100079.84
2019-05-03T18:43:54.436Z,100083.20
2019-05-03T18:46:30.400Z,100084.47
2019-05-03T18:49:01.943Z,100091.42
2019-05-03T18:51:34.397Z,100093.12
2019-05-03T18:54:07.353Z,100094.43
2019-05-03T18:56:38.895Z,100093.28
2019-05-03T18:59:10.289Z,100099.23
2019-05-03T19:01:41.868Z,100100.78
2019-05-03T19:04:15.138Z,100099.52
2019-05-03T19:06:46.711Z,100103.42
2019-05-03T19:09:28.584Z,100108.97
2019-05-03T19:12:15.433Z,100105.58
2019-05-03T19:14:46.941Z,100106.20
2019-05-03T19:17:20.071Z,100107.16
2019-05-03T19:19:58.734Z,100098.52
2019-05-03T19:22:31.411Z,100108.78
2019-05-03T19:25:02.713Z,100113.83
2019-05-03T19:27:34.634Z,100109.17
2019-05-03T19:30:07.586Z,100108.95
2019-05-03T19:32:38.958Z,100107.27
2019-05-03T19:35:10.608Z,100108.84
2019-05-03T19:37:41.995Z,100112.52
2019-05-03T19:40:13.342Z,100114.92
2019-05-03T19:42:44.828Z,100121.52
2019-05-03T19:45:16.204Z,100118.78
2019-05-03T19:47:47.412Z,100116.76
2019-05-03T19:50:18.834Z,100117.95
2019-05-03T19:53:08.213Z,100112.60
2019-05-03T19:55:39.607Z,100119.42
2019-05-03T19:58:11.338Z,100126.22
2019-05-03T20:00:44.404Z,100125.36
2019-05-03T20:03:35.634Z,100129.03
2019-05-03T20:06:14.488Z,100139.86
2019-05-03T20:08:47.459Z,100141.11
2019-05-03T20:11:18.765Z,100143.09
2019-05-03T20:13:50.230Z,100151.09
2019-05-03T20:16:21.770Z,100155.67
2019-05-03T20:18:55.402Z,100161.86
2019-05-03T20:21:26.119Z,100162.66
2019-05-03T20:23:57.385Z,100166.14
2019-05-03T20:26:28.807Z,100157.04
2019-05-03T20:29:00.220Z,100167.20
2019-05-03T20:31:31.503Z,100167.70
2019-05-03T20:34:05.344Z,100174.16
2019-05-03T20:36:38.000Z,100177.73
2019-05-03T20:39:09.225Z,100176.36
2019-05-03T20:41:45.190Z,100166.89
2019-05-03T20:44:20.987Z,100173.59
2019-05-03T20:46:58.717Z,100185.23
2019-05-03T20:49:32.206Z,100178.20
2019-05-03T20:52:05.032Z,100168.76
2019-05-03T20:54:36.967Z,100175.21
2019-05-03T20:57:10.062Z,100176.30
2019-05-03T20:59:46.001Z,100169.37
2019-05-03T21:02:15.348Z,100175.50
2019-05-03T21:04:46.804Z,100176.53
2019-05-03T21:07:18.530Z,100180.23
2019-05-03T21:09:50.138Z,100178.36
2019-05-03T21:12:22.371Z,100176.91
2019-05-03T21:14:55.582Z,100184.78
2019-05-03T21:17:45.063Z,100192.40
2019-05-03T21:20:34.876Z,100174.13
2019-05-03T21:23:25.061Z,100179.44
2019-05-03T21:26:12.618Z,100184.00
2019-05-03T21:28:38.331Z,100185.89
2019-05-03T21:31:09.911Z,100184.86
2019-05-03T21:33:41.260Z,100189.09
2019-05-03T21:36:12.642Z,100187.02
2019-05-03T21:38:44.459Z,100183.95
2019-05-03T21:41:15.893Z,100186.89
2019-05-03T21:43:47.241Z,100191.95
2019-05-03T21:46:20.125Z,100195.13
2019-05-03T21:48:55.256Z,100189.54
2019-05-03T21:51:26.126Z,100188.30
2019-05-03T21:53:57.559Z,100192.20
2019-05-03T21:56:29.055Z,100187.06
2019-05-03T21:59:00.262Z,100185.27
2019-05-03T22:01:31.823Z,100186.64
2019-05-03T22:04:03.333Z,100196.05
2019-05-03T22:06:35.154Z,100191.20
2019-05-03T22:09:07.505Z,100194.30
2019-05-03T22:11:40.459Z,100190.53
2019-05-03T22:14:15.170Z,100186.48
2019-05-03T22:16:51.059Z,100184.86
2019-05-03T22:19:22.513Z,100188.50
2019-05-03T22:22:12.048Z,100185.48
2019-05-03T22:24:46.558Z,100185.44
2019-05-03T22:27:17.955Z,100183.41
2019-05-03T22:29:49.530Z,100188.75
2019-05-03T22:32:20.738Z,100183.86
2019-05-03T22:34:53.342Z,100184.44
2019-05-03T22:37:25.211Z,100185.72
2019-05-03T22:39:56.556Z,100184.20
2019-05-03T22:42:27.852Z,100189.98
2019-05-03T22:44:59.158Z,100191.22
2019-05-03T22:47:31.543Z,100192.95
2019-05-03T22:50:05.413Z,100195.77
2019-05-03T22:52:36.745Z,100194.86
2019-05-03T22:55:08.089Z,100191.59
2019-05-03T22:57:41.115Z,100197.17
2019-05-03T23:00:14.620Z,100196.92
2019-05-03T23:02:47.862Z,100193.16
2019-05-03T23:05:19.285Z,100201.56
2019-05-03T23:07:50.713Z,100204.20
2019-05-03T23:10:21.846Z,100203.40
2019-05-03T23:12:54.384Z,100203.90
2019-05-03T23:15:26.934Z,100205.70
2019-05-03T23:17:58.328Z,100207.44
2019-05-03T23:20:37.539Z,100205.00
2019-05-03T23:23:10.596Z,100205.00
2019-05-03T23:25:42.103Z,100208.23
2019-05-03T23:28:14.481Z,100205.94
2019-05-03T23:30:45.868Z,100209.37
2019-05-03T23:33:17.165Z,100213.80
2019-05-03T23:35:48.455Z,100215.70
2019-05-03T23:38:19.824Z,100219.66
2019-05-03T23:40:51.274Z,100241.33
2019-05-03T23:43:25.182Z,100276.78
2019-05-03T23:45:56.625Z,100263.73
2019-05-03T23:48:27.905Z,100257.22
2019-05-03T23:50:59.220Z,100254.73
2019-05-03T23:53:30.529Z,100258.25
2019-05-03T23:56:04.518Z,100258.16
2019-05-03T23:58:35.837Z,100258.50
